Terminal Aerodrome Forecast
Issued by NWS

Home | Current Version | Previous Version | Text Only | Print | Product List | Glossary On
Versions: 1 2 3 4 5 6 7 8 9 10 11 12 13 14 15
453
FTAK31 PAJN 181626 AAA
TAFAGY
TAF AMD
PAGY 181626Z 1816/1912 00000KT P6SM FEW015 SCT025 BKN060
      TEMPO 1816/1818 6SM BR SCT015 BKN025 OVC060
     FM181800 03010KT P6SM FEW025 SCT060
     FM182100 03012G22KT P6SM FEW060
      AMD LTD TO CLD VIS AND WIND=

USA.gov is the U.S. government's official web portal to all federal, state and local government web resources and services.